Time;durP1;ratioP1;P1;durP2;ratioP2;P2;SDS_P1;SDS_P2;PMS_P1;PMS_P2;Temp;Humidity;BMP_temperature;BMP_pressure;BME280_temperature;BME280_humidity;BME280_pressure;Samples;Min_cycle;Max_cycle;Signal;HPM_P1;HPM_P2
2022/07/10 00:01:23;;;;;;;2.75;0.73;;;13.80;1.00;;;;;;4981249;28;20712;-82
2022/07/10 00:03:49;;;;;;;3.95;0.80;;;13.80;1.00;;;;;;4983156;28;20267;-83
2022/07/10 00:06:16;;;;;;;2.55;0.80;;;13.80;1.00;;;;;;4977103;28;20259;-84
2022/07/10 00:08:42;;;;;;;3.22;0.80;;;13.80;1.00;;;;;;4976904;28;20724;-79
2022/07/10 00:11:08;;;;;;;4.20;1.20;;;13.70;1.00;;;;;;4976194;28;20211;-81
2022/07/10 00:13:34;;;;;;;3.10;0.70;;;13.70;1.00;;;;;;4977362;28;20282;-80
2022/07/10 00:16:01;;;;;;;2.83;0.80;;;13.60;1.00;;;;;;4994027;28;20609;-82
2022/07/10 00:18:28;;;;;;;3.17;0.80;;;13.60;1.00;;;;;;4976761;28;20184;-80
2022/07/10 00:20:53;;;;;;;2.97;0.80;;;13.50;1.00;;;;;;5001006;28;20220;-81
2022/07/10 00:23:19;;;;;;;4.57;0.90;;;13.50;1.00;;;;;;4975634;28;20185;-80
2022/07/10 00:25:45;;;;;;;4.13;0.90;;;13.50;1.00;;;;;;4977395;28;20740;-81
2022/07/10 00:28:11;;;;;;;2.63;1.20;;;13.60;1.00;;;;;;4979123;28;20275;-80
2022/07/10 00:30:37;;;;;;;3.53;0.90;;;13.70;1.00;;;;;;4992052;28;20724;-80
2022/07/10 00:33:03;;;;;;;2.63;1.02;;;13.60;1.00;;;;;;4978123;28;20184;-81
2022/07/10 00:35:28;;;;;;;4.07;1.08;;;13.70;1.00;;;;;;4991968;28;20264;-80
2022/07/10 00:37:54;;;;;;;3.47;0.85;;;13.70;1.00;;;;;;4977124;28;20714;-80
2022/07/10 00:40:20;;;;;;;3.90;0.95;;;13.80;1.00;;;;;;4980069;28;20204;-80
2022/07/10 00:42:46;;;;;;;4.38;0.85;;;13.70;1.00;;;;;;4982533;28;20540;-81
2022/07/10 00:45:11;;;;;;;2.80;0.70;;;13.70;1.00;;;;;;4977847;28;20184;-80
2022/07/10 00:47:38;;;;;;;3.58;0.90;;;13.80;1.00;;;;;;4981381;28;20188;-83
2022/07/10 00:50:04;;;;;;;3.63;1.17;;;13.70;1.00;;;;;;4983138;28;20212;-80
2022/07/10 00:52:30;;;;;;;5.05;0.90;;;13.80;1.00;;;;;;4983317;28;20188;-80
2022/07/10 00:54:57;;;;;;;3.30;1.00;;;13.80;1.00;;;;;;4999514;28;20213;-80
2022/07/10 00:57:23;;;;;;;4.55;0.85;;;13.80;1.00;;;;;;4982725;28;20275;-81
2022/07/10 00:59:49;;;;;;;2.55;0.75;;;13.80;1.00;;;;;;4982457;28;20489;-80
2022/07/10 01:02:16;;;;;;;2.75;0.90;;;13.80;1.00;;;;;;4978147;28;20681;-81
2022/07/10 01:04:42;;;;;;;2.25;0.70;;;13.80;1.00;;;;;;4992431;28;20188;-81
2022/07/10 01:07:07;;;;;;;3.67;0.80;;;13.80;1.00;;;;;;4978418;28;20250;-80
2022/07/10 01:09:33;;;;;;;4.15;0.80;;;13.80;1.00;;;;;;4974193;28;20750;-80
2022/07/10 01:12:03;;;;;;;1.55;0.77;;;13.80;1.00;;;;;;4976787;28;20736;-79
2022/07/10 01:14:30;;;;;;;2.25;0.50;;;13.80;1.00;;;;;;4983215;28;20362;-82
2022/07/10 01:16:58;;;;;;;2.35;0.70;;;13.80;1.00;;;;;;4977816;28;20212;-80
2022/07/10 01:19:24;;;;;;;2.13;0.63;;;13.80;1.00;;;;;;4999072;28;20204;-81
2022/07/10 01:21:50;;;;;;;3.38;1.00;;;13.80;1.00;;;;;;4982116;28;20200;-80
2022/07/10 01:24:15;;;;;;;3.13;0.88;;;13.70;1.00;;;;;;4991065;28;20272;-81
2022/07/10 01:26:42;;;;;;;2.58;0.68;;;13.70;1.00;;;;;;4981782;28;20681;-80
2022/07/10 01:29:09;;;;;;;3.20;0.80;;;13.70;1.00;;;;;;4974601;28;20208;-81
2022/07/10 01:31:35;;;;;;;2.55;0.77;;;13.70;1.00;;;;;;4983781;28;20187;-81
2022/07/10 01:34:04;;;;;;;2.42;0.88;;;13.70;1.00;;;;;;4982729;28;20218;-81
2022/07/10 01:36:30;;;;;;;3.40;0.75;;;13.70;1.00;;;;;;4977748;28;20369;-80
2022/07/10 01:38:56;;;;;;;3.17;0.80;;;13.60;1.00;;;;;;4986170;28;20292;-80
2022/07/10 01:41:22;;;;;;;4.30;0.75;;;13.50;1.00;;;;;;4984774;28;20299;-80
2022/07/10 01:43:48;;;;;;;3.85;0.80;;;13.50;1.00;;;;;;4980326;28;20708;-81
2022/07/10 01:46:15;;;;;;;3.10;0.80;;;13.50;1.00;;;;;;4978486;28;20193;-80
2022/07/10 01:48:41;;;;;;;4.60;0.95;;;13.40;1.00;;;;;;4980002;28;20288;-80
2022/07/10 01:51:09;;;;;;;3.60;0.88;;;13.40;1.00;;;;;;4981703;28;20230;-81
2022/07/10 01:53:35;;;;;;;3.30;0.73;;;13.40;1.00;;;;;;4984296;28;20304;-80
2022/07/10 01:56:04;;;;;;;6.05;0.88;;;13.40;1.00;;;;;;5002992;28;20605;-80
2022/07/10 01:58:30;;;;;;;3.30;0.75;;;13.40;1.00;;;;;;4978932;28;20654;-81
2022/07/10 02:00:56;;;;;;;5.78;1.58;;;13.40;5.40;;;;;;4986942;28;20195;-81
2022/07/10 02:06:05;;;;;;;3.17;1.08;;;13.40;47.30;;;;;;4980805;28;20607;-83
2022/07/10 02:08:31;;;;;;;3.58;1.00;;;13.30;88.10;;;;;;4980323;28;20177;-82
2022/07/10 02:10:57;;;;;;;3.83;0.80;;;13.20;99.90;;;;;;4986585;28;20193;-80
2022/07/10 02:13:24;;;;;;;2.78;0.85;;;13.10;99.90;;;;;;4983462;28;20176;-80
2022/07/10 02:15:50;;;;;;;5.63;1.27;;;13.10;99.90;;;;;;4985735;28;20279;-81
2022/07/10 02:18:15;;;;;;;8.57;1.20;;;13.00;99.90;;;;;;4978781;28;20259;-80
2022/07/10 02:20:41;;;;;;;5.03;1.10;;;13.00;99.90;;;;;;4984862;28;20227;-82
2022/07/10 02:23:07;;;;;;;6.05;1.20;;;12.90;99.90;;;;;;4995446;28;20189;-81
2022/07/10 02:25:33;;;;;;;3.80;1.25;;;12.90;99.90;;;;;;4984078;28;20655;-80
2022/07/10 02:27:59;;;;;;;4.35;1.13;;;12.80;99.90;;;;;;4978957;28;20185;-83
2022/07/10 02:30:25;;;;;;;7.38;1.55;;;12.80;99.90;;;;;;4985453;28;20303;-81
2022/07/10 02:32:50;;;;;;;4.20;1.30;;;12.80;99.90;;;;;;4978585;28;20556;-81
2022/07/10 02:35:16;;;;;;;5.88;1.05;;;12.70;99.90;;;;;;4983383;28;20204;-81
2022/07/10 02:37:42;;;;;;;6.50;1.30;;;12.70;99.90;;;;;;4983579;28;20196;-83
2022/07/10 02:40:08;;;;;;;3.47;1.30;;;12.70;99.90;;;;;;4981316;28;20208;-80
2022/07/10 02:42:33;;;;;;;2.75;0.98;;;12.70;99.90;;;;;;4982870;28;20180;-81
2022/07/10 02:44:59;;;;;;;3.30;1.00;;;12.70;99.90;;;;;;4978488;28;20721;-80
2022/07/10 02:47:24;;;;;;;3.05;0.93;;;12.70;99.90;;;;;;4982540;28;20283;-81
2022/07/10 02:49:50;;;;;;;4.38;1.13;;;12.70;99.90;;;;;;4978238;28;20247;-86
2022/07/10 02:52:15;;;;;;;5.20;1.45;;;12.70;99.90;;;;;;4984596;28;20195;-81
2022/07/10 02:54:41;;;;;;;4.55;1.20;;;12.70;99.90;;;;;;4985023;28;20216;-81
2022/07/10 02:57:07;;;;;;;3.97;1.27;;;12.70;99.90;;;;;;4981555;28;20181;-82
2022/07/10 02:59:32;;;;;;;5.63;1.20;;;12.80;99.90;;;;;;4984398;28;20196;-82
2022/07/10 03:01:58;;;;;;;5.50;1.15;;;12.80;99.90;;;;;;4976749;28;20169;-80
2022/07/10 03:04:23;;;;;;;4.97;1.40;;;12.80;99.90;;;;;;4982204;28;20181;-80
2022/07/10 03:06:49;;;;;;;2.88;0.85;;;12.90;99.90;;;;;;4977175;28;20657;-82
2022/07/10 03:09:14;;;;;;;5.45;1.17;;;12.90;99.90;;;;;;4981543;28;20621;-82
2022/07/10 03:11:40;;;;;;;5.30;0.93;;;12.90;99.90;;;;;;4977382;28;20689;-83
2022/07/10 03:14:05;;;;;;;3.13;0.95;;;12.90;99.90;;;;;;4984292;28;20208;-81
2022/07/10 03:16:31;;;;;;;2.10;1.00;;;12.90;99.90;;;;;;4980867;28;20250;-81
2022/07/10 03:18:57;;;;;;;3.97;1.08;;;13.00;99.90;;;;;;4976331;28;20757;-82
2022/07/10 03:21:23;;;;;;;3.03;1.27;;;13.00;99.90;;;;;;4991958;28;20213;-83
2022/07/10 03:23:49;;;;;;;3.03;0.82;;;13.10;75.00;;;;;;4977049;28;20187;-83
2022/07/10 03:26:14;;;;;;;5.13;1.00;;;13.00;58.40;;;;;;4977997;28;21351;-80
2022/07/10 03:28:40;;;;;;;4.32;1.02;;;13.10;48.30;;;;;;4982706;28;20689;-82
2022/07/10 03:31:06;;;;;;;2.55;1.05;;;13.10;25.60;;;;;;4977686;28;20214;-79
2022/07/10 03:33:32;;;;;;;5.07;1.08;;;13.10;8.20;;;;;;4976822;28;20294;-80
2022/07/10 03:35:57;;;;;;;3.28;1.05;;;13.10;1.00;;;;;;4983900;28;20270;-81
2022/07/10 03:38:23;;;;;;;2.13;0.90;;;13.10;17.80;;;;;;4981612;28;20180;-82
2022/07/10 03:40:48;;;;;;;4.28;0.82;;;13.10;24.60;;;;;;4983492;28;20710;-83
2022/07/10 03:43:14;;;;;;;2.53;0.75;;;13.10;27.20;;;;;;4977569;28;20604;-80
2022/07/10 03:45:40;;;;;;;2.08;0.68;;;13.10;42.40;;;;;;4983583;28;20471;-81
2022/07/10 03:48:06;;;;;;;5.15;0.98;;;13.00;1.00;;;;;;4979006;28;20195;-82
2022/07/10 03:50:32;;;;;;;3.83;0.90;;;13.10;16.10;;;;;;4982168;28;20192;-82
2022/07/10 03:52:58;;;;;;;4.50;0.80;;;13.00;63.20;;;;;;4977728;28;20188;-82
2022/07/10 03:55:23;;;;;;;5.63;1.30;;;13.00;99.90;;;;;;4978425;28;20263;-81
2022/07/10 03:57:56;;;;;;;5.07;0.73;;;13.00;99.90;;;;;;4982645;28;20203;-82
2022/07/10 04:00:23;;;;;;;5.80;1.15;;;12.90;99.90;;;;;;4978485;28;20200;-83
2022/07/10 04:02:56;;;;;;;4.28;1.00;;;13.00;99.90;;;;;;4978491;28;20216;-83
2022/07/10 04:05:21;;;;;;;3.00;0.88;;;12.90;99.90;;;;;;4984652;28;20218;-83
2022/07/10 04:07:47;;;;;;;3.92;1.30;;;12.80;99.90;;;;;;4977777;28;20200;-81
2022/07/10 04:10:13;;;;;;;4.75;1.00;;;12.70;99.90;;;;;;4976614;28;20208;-83
2022/07/10 04:12:38;;;;;;;2.67;0.90;;;12.70;99.90;;;;;;4981907;28;20184;-81
2022/07/10 04:15:05;;;;;;;4.20;1.00;;;12.70;99.90;;;;;;4978040;28;20580;-82
2022/07/10 04:17:32;;;;;;;5.50;1.15;;;12.70;99.90;;;;;;4991319;28;20188;-83
2022/07/10 04:20:00;;;;;;;3.00;1.00;;;12.70;99.90;;;;;;4983898;28;20214;-81
2022/07/10 04:22:27;;;;;;;5.32;1.13;;;12.70;99.90;;;;;;4976988;28;20711;-83
2022/07/10 04:24:53;;;;;;;3.33;1.02;;;12.70;99.90;;;;;;4993194;28;20203;-81
2022/07/10 04:27:19;;;;;;;2.78;1.08;;;12.70;99.90;;;;;;4978298;28;20189;-82
2022/07/10 04:29:44;;;;;;;4.18;0.70;;;12.80;99.90;;;;;;4977798;28;20228;-82
2022/07/10 04:32:10;;;;;;;2.95;0.90;;;12.80;99.90;;;;;;4976438;28;20283;-81
2022/07/10 04:34:36;;;;;;;1.42;0.80;;;12.80;99.90;;;;;;4975427;28;20565;-81
2022/07/10 04:37:01;;;;;;;2.33;0.82;;;12.90;99.90;;;;;;4977122;28;20173;-85
2022/07/10 04:39:27;;;;;;;4.25;1.02;;;12.90;99.90;;;;;;4981335;28;20710;-80
2022/07/10 04:41:52;;;;;;;2.50;0.93;;;12.90;99.90;;;;;;4975355;28;20289;-81
2022/07/10 04:44:18;;;;;;;12.35;1.35;;;13.00;99.90;;;;;;4978690;28;20201;-81
2022/07/10 04:46:44;;;;;;;3.17;0.95;;;13.00;99.90;;;;;;4983773;28;20208;-81
2022/07/10 04:49:10;;;;;;;3.33;1.00;;;13.00;99.90;;;;;;4976152;28;20248;-81
2022/07/10 04:51:35;;;;;;;3.85;1.10;;;13.00;99.90;;;;;;4980514;28;20198;-80
2022/07/10 04:54:01;;;;;;;2.22;0.98;;;13.00;99.90;;;;;;4977243;28;20212;-80
2022/07/10 04:56:26;;;;;;;2.90;0.80;;;13.00;99.90;;;;;;4981191;28;20353;-81
2022/07/10 04:58:52;;;;;;;1.98;1.10;;;13.00;99.90;;;;;;4981535;28;20208;-81
2022/07/10 05:01:18;;;;;;;1.95;0.90;;;12.90;99.90;;;;;;4980085;28;20185;-81
2022/07/10 05:03:44;;;;;;;5.03;1.40;;;13.00;99.90;;;;;;4975303;28;20189;-80
2022/07/10 05:06:09;;;;;;;4.38;1.23;;;12.90;99.90;;;;;;4980865;28;20782;-81
2022/07/10 05:08:35;;;;;;;3.03;0.88;;;12.90;99.90;;;;;;4974681;28;20280;-82
2022/07/10 05:11:00;;;;;;;2.17;0.80;;;13.00;99.90;;;;;;4983636;28;20270;-80
2022/07/10 05:13:26;;;;;;;2.97;0.80;;;12.90;99.90;;;;;;4983419;28;20263;-83
2022/07/10 05:15:52;;;;;;;3.80;0.93;;;13.00;99.90;;;;;;4981890;28;20181;-82
2022/07/10 05:18:17;;;;;;;2.08;0.70;;;13.00;99.90;;;;;;5002352;28;20200;-81
2022/07/10 05:20:44;;;;;;;2.28;0.95;;;12.90;99.90;;;;;;4985902;28;20228;-80
2022/07/10 05:23:11;;;;;;;2.92;0.90;;;13.00;99.90;;;;;;4983140;28;20259;-82
2022/07/10 05:25:37;;;;;;;3.97;1.08;;;13.00;99.90;;;;;;4981790;28;20176;-81
2022/07/10 05:28:04;;;;;;;1.83;1.00;;;13.10;99.90;;;;;;4986383;28;20196;-81
2022/07/10 05:30:30;;;;;;;5.72;0.95;;;13.10;99.90;;;;;;4986235;28;20688;-81
2022/07/10 05:32:55;;;;;;;2.08;1.05;;;13.20;99.90;;;;;;4985777;28;20189;-81
2022/07/10 05:35:21;;;;;;;4.57;1.02;;;13.20;99.90;;;;;;4983366;28;20213;-81
2022/07/10 05:37:46;;;;;;;3.42;1.13;;;13.20;99.90;;;;;;4978142;28;20188;-82
2022/07/10 05:40:12;;;;;;;1.90;0.90;;;13.20;99.90;;;;;;4978581;28;20238;-82
2022/07/10 05:42:37;;;;;;;3.97;1.50;;;13.20;99.90;;;;;;4978155;28;20184;-81
2022/07/10 05:45:05;;;;;;;3.03;1.30;;;13.30;99.90;;;;;;4980816;28;20192;-82
2022/07/10 05:47:31;;;;;;;4.53;1.42;;;13.20;99.90;;;;;;4978773;28;20220;-81
2022/07/10 05:49:56;;;;;;;2.50;1.13;;;13.30;99.90;;;;;;4985113;28;20240;-82
2022/07/10 05:52:22;;;;;;;2.83;1.30;;;13.30;99.90;;;;;;4985180;28;20200;-82
2022/07/10 05:54:48;;;;;;;1.98;1.15;;;13.30;99.90;;;;;;4985020;28;20212;-81
2022/07/10 05:57:13;;;;;;;2.55;1.20;;;13.40;99.90;;;;;;4983390;28;20214;-84
2022/07/10 05:59:39;;;;;;;5.30;1.55;;;13.40;99.90;;;;;;4983411;28;20209;-83
2022/07/10 06:02:04;;;;;;;5.85;1.23;;;13.50;99.90;;;;;;4979888;28;20246;-81
2022/07/10 06:04:30;;;;;;;2.25;0.80;;;13.50;99.90;;;;;;4978350;28;20205;-82
2022/07/10 06:06:56;;;;;;;2.60;1.00;;;13.50;99.90;;;;;;4979506;28;20994;-81
2022/07/10 06:09:21;;;;;;;2.92;1.25;;;13.60;99.90;;;;;;4978642;28;20213;-80
2022/07/10 06:11:48;;;;;;;3.03;1.00;;;13.70;99.90;;;;;;4985131;28;20585;-82
2022/07/10 06:14:13;;;;;;;5.25;1.20;;;13.80;99.90;;;;;;4985359;28;20210;-81
2022/07/10 06:16:39;;;;;;;2.83;0.95;;;13.90;99.90;;;;;;4979148;28;20568;-81
2022/07/10 06:19:05;;;;;;;4.43;1.65;;;14.00;99.90;;;;;;4985895;28;20891;-82
2022/07/10 06:21:31;;;;;;;3.92;1.38;;;14.00;99.90;;;;;;4986175;28;20221;-83
2022/07/10 06:23:56;;;;;;;3.42;1.00;;;14.10;99.90;;;;;;4993425;28;20210;-81
2022/07/10 06:26:22;;;;;;;3.08;1.17;;;14.10;99.90;;;;;;4983487;28;20302;-81
2022/07/10 06:28:47;;;;;;;3.58;0.95;;;14.00;99.90;;;;;;4976993;28;20196;-84
2022/07/10 06:31:13;;;;;;;2.90;0.80;;;14.10;99.90;;;;;;4978674;28;20193;-81
2022/07/10 06:33:39;;;;;;;4.63;1.20;;;14.10;99.90;;;;;;4982749;28;20209;-82
2022/07/10 06:36:05;;;;;;;3.15;0.90;;;14.00;99.90;;;;;;4985796;28;20181;-81
2022/07/10 06:38:31;;;;;;;3.10;0.90;;;14.10;99.90;;;;;;4979928;28;20192;-83
2022/07/10 06:40:57;;;;;;;4.13;1.27;;;14.20;99.90;;;;;;4985121;28;20271;-81
2022/07/10 06:43:22;;;;;;;3.13;1.02;;;14.30;99.90;;;;;;4978454;28;20303;-81
2022/07/10 06:45:48;;;;;;;4.03;1.15;;;14.50;99.90;;;;;;4979732;28;20201;-80
2022/07/10 06:48:14;;;;;;;3.53;1.00;;;14.70;99.90;;;;;;4982085;28;20273;-80
2022/07/10 06:50:41;;;;;;;4.80;1.23;;;14.70;99.90;;;;;;4977950;28;20321;-81
2022/07/10 06:53:07;;;;;;;5.40;1.20;;;15.00;99.90;;;;;;4979799;28;20185;-80
2022/07/10 06:55:33;;;;;;;2.83;1.35;;;15.00;99.90;;;;;;4979805;28;20216;-80
2022/07/10 06:57:59;;;;;;;2.97;1.13;;;15.20;99.90;;;;;;4979565;28;20206;-81
2022/07/10 07:00:25;;;;;;;5.38;1.48;;;15.20;99.90;;;;;;4978199;28;20215;-80
2022/07/10 07:02:51;;;;;;;3.13;0.93;;;15.20;99.90;;;;;;4984704;28;20673;-80
2022/07/10 07:05:17;;;;;;;3.25;1.10;;;15.20;99.90;;;;;;4978638;28;20361;-80
2022/07/10 07:07:42;;;;;;;7.82;1.60;;;15.10;87.40;;;;;;4978277;28;20332;-83
2022/07/10 07:10:09;;;;;;;4.00;1.20;;;15.10;75.90;;;;;;4975889;28;20241;-79
2022/07/10 07:12:35;;;;;;;3.83;1.00;;;15.10;63.40;;;;;;4978370;28;20189;-79
2022/07/10 07:15:00;;;;;;;5.25;1.48;;;15.20;79.20;;;;;;4986092;28;20212;-81
2022/07/10 07:17:33;;;;;;;3.97;1.55;;;15.20;7.50;;;;;;4980414;28;20211;-80
2022/07/10 07:25:28;;;;;;;5.03;1.40;;;15.90;99.90;;;;;;4978266;28;20780;-80
2022/07/10 07:27:54;;;;;;;3.50;1.20;;;16.20;99.90;;;;;;4980891;28;20188;-81
2022/07/10 07:30:19;;;;;;;4.50;1.20;;;16.40;1.00;;;;;;4983630;28;20232;-80
2022/07/10 07:32:47;;;;;;;4.85;1.17;;;16.50;1.00;;;;;;4972564;28;20196;-82
2022/07/10 07:35:14;;;;;;;2.78;0.90;;;16.60;1.00;;;;;;4981590;28;20274;-81
2022/07/10 07:37:50;;;;;;;3.33;1.15;;;16.60;99.90;;;;;;4973426;28;20280;-80
2022/07/10 07:40:24;;;;;;;4.47;1.10;;;16.90;1.00;;;;;;4979559;28;20206;-80
2022/07/10 07:42:53;;;;;;;3.70;1.48;;;17.00;1.00;;;;;;4977075;28;20195;-80
2022/07/10 07:45:19;;;;;;;3.15;1.08;;;17.20;1.00;;;;;;4980265;28;20227;-79
2022/07/10 07:47:47;;;;;;;4.38;0.85;;;17.40;99.90;;;;;;4987125;28;20616;-80
2022/07/10 07:50:18;;;;;;;3.53;1.15;;;17.50;1.00;;;;;;4966625;28;20205;-81
2022/07/10 07:52:45;;;;;;;4.20;1.20;;;17.60;1.00;;;;;;4979377;28;20184;-80
2022/07/10 07:55:11;;;;;;;3.65;1.20;;;17.80;1.00;;;;;;4978028;28;20255;-80
2022/07/10 07:57:38;;;;;;;3.92;1.23;;;17.70;99.90;;;;;;4981049;28;20220;-81
2022/07/10 08:00:06;;;;;;;4.95;1.38;;;17.80;47.30;;;;;;4978394;28;20200;-80
2022/07/10 08:02:31;;;;;;;5.72;1.23;;;17.80;2.00;;;;;;4968678;28;20228;-81
2022/07/10 08:04:57;;;;;;;5.85;0.98;;;17.80;99.90;;;;;;4981788;28;20651;-82
2022/07/10 08:07:23;;;;;;;4.43;1.08;;;18.10;99.90;;;;;;4981029;28;20185;-81
2022/07/10 08:09:49;;;;;;;4.93;1.45;;;18.30;1.00;;;;;;4981429;28;20503;-81
2022/07/10 08:12:15;;;;;;;3.38;1.20;;;17.90;7.10;;;;;;4978894;28;20219;-82
2022/07/10 08:14:40;;;;;;;5.93;1.40;;;17.80;1.00;;;;;;4979201;28;20306;-81
2022/07/10 08:17:06;;;;;;;4.68;1.30;;;17.70;99.90;;;;;;4988346;28;20193;-83
2022/07/10 08:19:31;;;;;;;2.40;0.88;;;17.60;99.90;;;;;;4976819;28;20813;-80
2022/07/10 08:21:57;;;;;;;3.58;1.13;;;17.60;1.00;;;;;;4972986;28;20666;-80
2022/07/10 08:24:22;;;;;;;4.55;1.48;;;17.70;99.90;;;;;;4982000;28;20199;-80
2022/07/10 08:26:48;;;;;;;4.40;1.13;;;17.80;1.00;;;;;;4975411;28;20189;-81
2022/07/10 08:29:15;;;;;;;4.75;1.40;;;17.60;24.10;;;;;;4980798;28;20314;-81
2022/07/10 08:31:40;;;;;;;5.13;1.27;;;17.50;99.90;;;;;;4979849;28;20204;-81
2022/07/10 08:34:06;;;;;;;4.13;1.08;;;17.10;1.00;;;;;;4972549;28;20213;-79
2022/07/10 08:36:31;;;;;;;3.92;1.05;;;16.90;1.00;;;;;;4982961;28;20783;-81
2022/07/10 08:38:58;;;;;;;2.95;1.15;;;16.80;99.90;;;;;;4982008;28;20576;-79
2022/07/10 08:41:27;;;;;;;2.40;0.98;;;16.80;99.90;;;;;;4976094;28;20208;-81
2022/07/10 08:43:53;;;;;;;3.65;1.35;;;16.70;1.00;;;;;;4980764;28;20188;-79
2022/07/10 08:46:19;;;;;;;3.25;1.45;;;16.90;83.00;;;;;;4980919;28;20193;-81
2022/07/10 08:48:50;;;;;;;4.28;1.33;;;17.30;1.00;;;;;;4973361;28;20211;-82
2022/07/10 08:51:37;;;;;;;4.72;1.40;;;17.60;1.00;;;;;;4981317;28;20203;-81
2022/07/10 08:54:05;;;;;;;4.50;1.20;;;17.80;1.00;;;;;;4985863;28;20760;-80
2022/07/10 08:56:31;;;;;;;4.05;1.00;;;18.00;1.00;;;;;;4979309;28;20709;-79
2022/07/10 08:58:59;;;;;;;4.05;0.95;;;18.10;1.00;;;;;;4984102;28;20209;-80
2022/07/10 09:01:24;;;;;;;2.20;0.88;;;18.20;99.90;;;;;;4979600;28;20252;-80
2022/07/10 09:03:50;;;;;;;3.03;1.15;;;18.40;49.80;;;;;;4976040;28;20195;-80
2022/07/10 09:06:16;;;;;;;4.43;1.00;;;18.40;1.00;;;;;;4979914;28;20262;-81
2022/07/10 09:08:57;;;;;;;4.25;0.95;;;18.60;1.00;;;;;;4978014;28;20733;-80
2022/07/10 09:11:25;;;;;;;4.57;1.35;;;18.90;1.00;;;;;;4972835;28;20192;-79
2022/07/10 09:13:55;;;;;;;2.53;1.08;;;18.80;1.00;;;;;;4978724;28;20219;-79
2022/07/10 09:16:28;;;;;;;3.13;0.95;;;18.80;1.00;;;;;;4999086;28;20578;-80
2022/07/10 09:18:55;;;;;;;2.20;1.30;;;18.70;1.00;;;;;;4977493;28;20685;-80
2022/07/10 09:21:21;;;;;;;4.05;1.02;;;18.40;1.00;;;;;;4982405;28;20216;-81
2022/07/10 09:23:48;;;;;;;2.67;0.82;;;18.30;1.00;;;;;;4982967;28;20311;-79
2022/07/10 09:26:14;;;;;;;2.75;0.80;;;18.30;1.00;;;;;;4983651;28;20219;-80
2022/07/10 09:28:39;;;;;;;1.90;0.80;;;18.70;1.00;;;;;;4968065;28;20655;-80
2022/07/10 09:31:05;;;;;;;6.57;1.13;;;18.80;1.00;;;;;;4978474;28;20199;-80
2022/07/10 09:33:33;;;;;;;4.82;1.08;;;18.70;1.00;;;;;;4982648;28;20275;-79
2022/07/10 09:38:43;;;;;;;5.18;1.20;;;18.70;1.00;;;;;;4983676;28;20673;-80
2022/07/10 09:41:16;;;;;;;4.57;1.40;;;18.80;1.00;;;;;;4981634;28;20180;-79
2022/07/10 09:43:49;;;;;;;4.68;1.42;;;19.00;1.00;;;;;;4980419;28;20188;-79
2022/07/10 09:46:16;;;;;;;5.00;1.08;;;18.90;99.90;;;;;;4981662;28;20259;-80
2022/07/10 09:48:42;;;;;;;4.95;1.20;;;19.10;99.90;;;;;;4984519;28;20345;-80
2022/07/10 09:51:09;;;;;;;5.45;1.40;;;19.20;99.90;;;;;;4978184;28;20180;-79
2022/07/10 09:53:44;;;;;;;3.33;1.00;;;19.20;99.90;;;;;;4984831;28;20698;-80
2022/07/10 09:56:11;;;;;;;4.47;2.80;;;19.30;99.90;;;;;;4982769;28;20179;-79
2022/07/10 09:58:38;;;;;;;3.72;1.33;;;19.60;99.90;;;;;;4977509;28;20193;-80
2022/07/10 10:01:06;;;;;;;3.53;1.05;;;19.90;99.90;;;;;;5001346;28;20216;-80
2022/07/10 10:03:38;;;;;;;5.15;1.35;;;19.80;99.90;;;;;;4983282;28;20219;-80
2022/07/10 10:06:20;;;;;;;3.08;1.02;;;19.30;99.90;;;;;;4985691;28;20251;-91
2022/07/10 10:09:08;;;;;;;3.33;1.00;;;18.90;99.90;;;;;;5009073;28;20240;-88
2022/07/10 10:11:36;;;;;;;4.10;1.20;;;18.70;99.40;;;;;;4981531;28;20192;-89
2022/07/10 10:14:02;;;;;;;3.33;1.25;;;19.00;99.90;;;;;;4995610;28;20211;-89
2022/07/10 10:16:29;;;;;;;5.20;1.25;;;19.20;99.90;;;;;;4995951;28;20192;-90
2022/07/10 10:21:40;;;;;;;5.22;1.23;;;19.30;99.90;;;;;;4984911;28;20471;-91
2022/07/10 10:24:06;;;;;;;5.47;1.70;;;19.50;99.90;;;;;;4984501;28;20189;-91
2022/07/10 10:26:32;;;;;;;3.47;1.40;;;19.70;99.90;;;;;;4981592;28;20571;-88
2022/07/10 10:29:01;;;;;;;2.92;1.20;;;19.80;99.90;;;;;;4978499;28;20285;-89
2022/07/10 10:31:28;;;;;;;2.63;1.17;;;19.90;58.70;;;;;;4982347;28;20250;-88
2022/07/10 10:33:57;;;;;;;4.80;1.27;;;19.80;68.40;;;;;;4988231;28;20298;-88
2022/07/10 10:36:44;;;;;;;5.25;1.10;;;19.50;1.00;;;;;;4979497;28;20192;-90
2022/07/10 10:39:18;;;;;;;4.75;0.90;;;19.30;1.00;;;;;;4977612;28;20205;-89
2022/07/10 10:41:54;;;;;;;2.15;0.95;;;19.20;41.60;;;;;;4990054;28;20191;-90
2022/07/10 10:44:24;;;;;;;4.97;1.45;;;19.30;99.90;;;;;;4999728;28;20195;-90
2022/07/10 10:46:50;;;;;;;4.28;1.40;;;19.30;1.00;;;;;;4978920;28;20238;-89
2022/07/10 10:49:17;;;;;;;3.90;1.15;;;19.40;1.00;;;;;;4978105;28;20698;-88
2022/07/10 10:52:03;;;;;;;2.40;1.05;;;19.40;1.00;;;;;;4986444;28;20192;-88
2022/07/10 10:54:30;;;;;;;4.75;1.33;;;19.40;27.30;;;;;;4981033;28;20216;-89
2022/07/10 10:57:31;;;;;;;4.60;1.40;;;19.40;1.00;;;;;;5003623;28;20729;-89
2022/07/10 10:59:58;;;;;;;2.53;1.00;;;19.40;1.00;;;;;;4992444;28;20209;-91
2022/07/10 11:02:34;;;;;;;4.65;1.13;;;19.70;1.00;;;;;;4982204;28;20279;-90
2022/07/10 11:05:21;;;;;;;2.67;1.52;;;19.70;1.00;;;;;;4987624;28;20200;-92
2022/07/10 11:07:55;;;;;;;3.53;1.40;;;19.90;1.00;;;;;;4978230;28;20200;-91
2022/07/10 11:10:32;;;;;;;4.22;1.10;;;19.90;1.00;;;;;;4990062;28;20215;-90
2022/07/10 11:13:02;;;;;;;3.58;1.00;;;19.60;11.50;;;;;;4993626;28;20192;-92
2022/07/10 11:15:30;;;;;;;3.00;0.93;;;19.20;44.90;;;;;;4997499;28;20555;-92
2022/07/10 11:18:18;;;;;;;3.97;1.23;;;18.90;26.80;;;;;;4994538;28;20215;-91
2022/07/10 11:21:43;;;;;;;3.72;1.10;;;19.10;99.90;;;;;;5003800;28;20252;-92
2022/07/10 11:24:58;;;;;;;4.38;1.05;;;19.30;99.90;;;;;;4981374;28;20222;-91
2022/07/10 11:31:08;;;;;;;1.90;0.90;;;19.60;99.90;;;;;;4985696;28;20595;-92
2022/07/10 11:34:02;;;;;;;2.67;1.33;;;19.30;1.00;;;;;;4985874;28;20200;-92
2022/07/10 11:36:48;;;;;;;9.63;3.85;;;19.50;1.00;;;;;;4998463;28;20243;-92
2022/07/10 11:39:14;;;;;;;4.40;2.25;;;19.70;1.00;;;;;;4998787;28;20220;-91
2022/07/10 11:41:45;;;;;;;3.88;2.00;;;19.90;1.00;;;;;;5038406;22;20245;-78
2022/07/10 11:44:16;;;;;;;4.05;1.45;;;20.40;1.00;;;;;;5024495;28;20179;-82
2022/07/10 11:46:44;;;;;;;3.47;1.50;;;20.70;1.00;;;;;;5017527;28;20655;-81
2022/07/10 11:49:10;;;;;;;5.05;1.45;;;20.70;1.00;;;;;;5014494;28;20190;-78
2022/07/10 11:51:39;;;;;;;3.72;1.33;;;20.50;1.00;;;;;;5007868;28;20242;-78
2022/07/10 11:54:13;;;;;;;11.05;6.78;;;20.30;1.00;;;;;;5005600;28;20678;-80
2022/07/10 11:56:44;;;;;;;4.63;3.30;;;20.10;1.00;;;;;;5006871;28;20198;-78
2022/07/10 11:59:11;;;;;;;5.50;1.67;;;20.00;1.00;;;;;;5005822;28;20187;-78
2022/07/10 12:01:51;;;;;;;5.38;1.33;;;20.00;1.00;;;;;;5007266;28;20184;-78
2022/07/10 12:04:23;;;;;;;4.85;1.23;;;20.00;1.00;;;;;;5021955;28;20650;-78
2022/07/10 12:06:51;;;;;;;3.30;0.98;;;20.10;1.00;;;;;;5007667;28;20219;-79
2022/07/10 12:09:18;;;;;;;3.47;1.00;;;20.00;1.00;;;;;;5006221;28;20538;-80
2022/07/10 12:11:58;;;;;;;2.55;1.08;;;19.80;1.00;;;;;;5007530;28;20188;-79
2022/07/10 12:14:26;;;;;;;3.28;1.15;;;19.80;1.00;;;;;;5007153;28;20283;-81
2022/07/10 12:16:53;;;;;;;3.85;1.38;;;19.90;1.00;;;;;;5007642;28;20179;-78
2022/07/10 12:19:30;;;;;;;3.75;1.65;;;20.00;1.00;;;;;;5004854;28;20250;-80
2022/07/10 12:21:57;;;;;;;3.13;1.40;;;20.10;1.00;;;;;;5007151;28;20167;-81
2022/07/10 12:24:23;;;;;;;3.15;1.88;;;20.10;1.00;;;;;;5005227;28;20172;-79
2022/07/10 12:26:50;;;;;;;3.33;1.15;;;20.50;1.00;;;;;;5007585;28;21096;-81
2022/07/10 12:29:19;;;;;;;3.47;1.10;;;20.80;1.00;;;;;;5006054;28;20179;-76
2022/07/10 12:31:46;;;;;;;3.83;0.93;;;21.10;1.00;;;;;;5005846;28;20214;-77
2022/07/10 12:34:13;;;;;;;3.85;1.42;;;21.20;1.00;;;;;;5006141;28;20558;-77
2022/07/10 12:36:52;;;;;;;3.90;1.35;;;21.10;1.00;;;;;;5006691;28;20179;-79
2022/07/10 12:39:23;;;;;;;3.20;0.80;;;21.30;1.00;;;;;;4996866;28;20192;-80
2022/07/10 12:42:06;;;;;;;4.20;1.23;;;21.30;1.00;;;;;;5007352;28;20603;-77
2022/07/10 12:44:33;;;;;;;3.78;1.10;;;21.10;1.00;;;;;;5006434;28;20670;-77
2022/07/10 12:47:11;;;;;;;1.83;1.00;;;21.00;1.00;;;;;;5007265;28;20225;-78
2022/07/10 12:50:03;;;;;;;3.90;0.82;;;20.80;1.00;;;;;;5004912;28;20327;-76
2022/07/10 12:52:39;;;;;;;4.15;1.10;;;20.50;1.00;;;;;;5006313;28;20188;-78
2022/07/10 12:55:05;;;;;;;4.35;0.80;;;20.30;1.00;;;;;;5004282;28;20203;-78
2022/07/10 12:57:44;;;;;;;3.00;1.00;;;20.10;1.00;;;;;;5021854;28;20176;-78
2022/07/10 13:00:13;;;;;;;2.88;0.90;;;20.10;1.00;;;;;;5004959;28;20199;-78
2022/07/10 13:02:39;;;;;;;2.90;1.27;;;20.30;1.00;;;;;;5006993;28;20182;-78
2022/07/10 13:05:05;;;;;;;3.88;1.38;;;20.40;1.00;;;;;;5006058;28;20187;-78
2022/07/10 13:07:36;;;;;;;5.20;2.28;;;20.50;1.00;;;;;;5006428;28;20278;-78
2022/07/10 13:10:03;;;;;;;5.32;2.53;;;20.20;1.00;;;;;;5005486;28;20203;-79
2022/07/10 13:12:29;;;;;;;5.45;1.75;;;20.30;1.00;;;;;;5006720;28;20206;-80